Time;durP1;ratioP1;P1;durP2;ratioP2;P2;SDS_P1;SDS_P2;PMS_P1;PMS_P2;Temp;Humidity;BMP_temperature;BMP_pressure;BME280_temperature;BME280_humidity;BME280_pressure;Samples;Min_cycle;Max_cycle;Signal;HPM_P1;HPM_P2
2022/11/23 00:01:26;;;;;;;2.80;1.97;;;2.50;97.30;;;;;;5017889;28;20474;-83
2022/11/23 00:03:54;;;;;;;2.87;2.67;;;2.50;97.30;;;;;;5018425;28;20415;-83
2022/11/23 00:06:21;;;;;;;2.00;1.83;;;2.50;97.30;;;;;;5017638;28;20541;-83
2022/11/23 00:08:47;;;;;;;2.17;2.00;;;2.60;97.30;;;;;;5013950;28;20428;-83
2022/11/23 00:11:13;;;;;;;2.20;2.00;;;2.60;97.30;;;;;;5008851;28;20710;-83
2022/11/23 00:13:39;;;;;;;2.80;2.37;;;2.60;97.30;;;;;;5016987;28;20473;-83
2022/11/23 00:16:12;;;;;;;2.33;2.13;;;2.70;97.30;;;;;;5017075;28;20530;-82
2022/11/23 00:18:37;;;;;;;5.17;2.13;;;2.70;97.30;;;;;;5035344;28;20415;-83
2022/11/23 00:21:08;;;;;;;5.03;2.10;;;2.80;97.30;;;;;;5019077;28;20411;-83
2022/11/23 00:23:33;;;;;;;4.13;2.17;;;2.80;97.30;;;;;;5020125;28;20177;-83
2022/11/23 00:25:59;;;;;;;2.30;2.17;;;2.80;97.30;;;;;;5019607;28;20450;-84
2022/11/23 00:28:24;;;;;;;2.90;1.53;;;2.90;97.30;;;;;;5019171;28;20177;-83
2022/11/23 00:30:50;;;;;;;3.10;2.60;;;2.90;97.30;;;;;;5019154;28;20184;-83
2022/11/23 00:33:16;;;;;;;4.80;3.00;;;2.90;97.30;;;;;;5017766;28;20185;-83
2022/11/23 00:35:42;;;;;;;1.63;1.53;;;2.80;97.30;;;;;;5019219;28;20245;-83
2022/11/23 00:38:07;;;;;;;3.63;3.43;;;2.80;97.30;;;;;;5037444;28;20930;-82
2022/11/23 00:40:33;;;;;;;2.43;1.50;;;2.80;97.30;;;;;;5036251;28;20195;-83
2022/11/23 00:42:58;;;;;;;1.30;1.20;;;2.80;97.30;;;;;;5018231;28;20208;-82
2022/11/23 00:45:24;;;;;;;1.43;1.33;;;2.70;97.30;;;;;;5019126;28;20231;-85
2022/11/23 00:47:49;;;;;;;1.73;1.63;;;2.60;97.30;;;;;;5018514;28;20180;-83
2022/11/23 00:50:16;;;;;;;5.83;3.20;;;2.60;97.30;;;;;;5016503;28;20185;-84
2022/11/23 00:52:41;;;;;;;3.33;2.83;;;2.60;97.30;;;;;;5017191;28;20176;-83
2022/11/23 00:55:07;;;;;;;2.40;1.70;;;2.70;97.30;;;;;;5017237;28;20985;-84
2022/11/23 00:57:33;;;;;;;4.00;2.10;;;2.80;97.30;;;;;;5017525;28;20176;-83
2022/11/23 00:59:59;;;;;;;1.67;1.57;;;2.90;97.30;;;;;;5024494;28;20498;-83
2022/11/23 01:02:24;;;;;;;5.50;1.77;;;2.90;97.30;;;;;;5018551;28;20291;-83
2022/11/23 01:04:50;;;;;;;2.73;2.33;;;3.00;97.30;;;;;;5017981;28;20885;-83
2022/11/23 01:07:15;;;;;;;7.00;1.80;;;3.10;97.30;;;;;;5005413;28;20216;-84
2022/11/23 01:09:41;;;;;;;2.07;1.93;;;3.20;97.30;;;;;;5018057;28;20259;-83
2022/11/23 01:12:06;;;;;;;3.83;3.10;;;3.20;97.30;;;;;;5035412;28;20662;-83
2022/11/23 01:14:32;;;;;;;2.73;2.60;;;3.20;97.30;;;;;;5017643;28;20191;-85
2022/11/23 01:16:58;;;;;;;3.90;3.70;;;3.20;97.30;;;;;;5017176;28;20207;-83
2022/11/23 01:19:24;;;;;;;5.47;2.27;;;3.20;97.30;;;;;;5016877;28;20181;-84
2022/11/23 01:21:49;;;;;;;2.73;2.53;;;3.20;97.30;;;;;;5017324;28;20208;-83
2022/11/23 01:24:18;;;;;;;1.50;1.40;;;3.20;97.30;;;;;;5034465;28;20450;-84
2022/11/23 01:26:44;;;;;;;1.97;1.80;;;3.20;97.30;;;;;;5016808;28;20239;-83
2022/11/23 01:29:10;;;;;;;2.40;2.23;;;3.30;97.30;;;;;;5012739;28;20417;-86
2022/11/23 01:31:36;;;;;;;1.90;1.43;;;3.30;97.30;;;;;;5020584;28;20180;-83
2022/11/23 01:34:02;;;;;;;5.37;2.30;;;3.40;97.30;;;;;;5025536;28;20426;-84
2022/11/23 01:36:31;;;;;;;2.70;1.60;;;3.40;97.30;;;;;;5015680;28;20200;-83
2022/11/23 01:38:58;;;;;;;2.03;1.90;;;3.40;97.30;;;;;;5015757;28;20495;-84
2022/11/23 01:41:30;;;;;;;2.80;2.57;;;3.40;97.30;;;;;;5005602;28;20455;-84
2022/11/23 01:43:55;;;;;;;2.87;2.67;;;3.40;97.30;;;;;;5013440;28;21034;-84
2022/11/23 01:46:21;;;;;;;5.17;2.77;;;3.50;97.30;;;;;;5032841;28;20450;-84
2022/11/23 01:48:55;;;;;;;10.10;2.80;;;3.50;97.30;;;;;;5044572;28;20242;-85
2022/11/23 01:51:28;;;;;;;3.57;1.73;;;3.60;97.30;;;;;;5012794;28;20183;-83
2022/11/23 01:53:58;;;;;;;6.70;4.30;;;3.70;97.30;;;;;;5006857;28;20426;-84
2022/11/23 01:56:27;;;;;;;2.87;2.67;;;3.70;97.30;;;;;;5014816;28;20435;-83
2022/11/23 01:58:57;;;;;;;3.23;3.00;;;3.80;97.30;;;;;;5015250;28;20531;-84
2022/11/23 02:01:23;;;;;;;1.73;1.70;;;3.90;97.30;;;;;;5031892;28;20549;-83
2022/11/23 02:03:50;;;;;;;11.87;6.30;;;3.90;97.30;;;;;;5043808;23;20572;-86
2022/11/23 02:06:18;;;;;;;3.63;3.43;;;4.00;97.30;;;;;;5032844;28;20253;-86
2022/11/23 02:08:45;;;;;;;2.90;2.23;;;4.00;97.30;;;;;;5032218;28;20439;-85
2022/11/23 02:11:13;;;;;;;2.80;2.10;;;4.00;97.30;;;;;;5051083;28;20428;-86
2022/11/23 02:13:41;;;;;;;10.97;2.40;;;4.10;97.30;;;;;;5023589;28;20481;-86
2022/11/23 02:16:07;;;;;;;8.00;2.87;;;4.10;97.30;;;;;;5003714;28;20469;-86
2022/11/23 02:18:35;;;;;;;3.17;2.37;;;4.20;97.30;;;;;;5031223;28;20706;-86
2022/11/23 02:21:02;;;;;;;5.50;4.23;;;4.20;97.30;;;;;;5013855;28;20992;-86
2022/11/23 02:23:49;;;;;;;1.93;1.87;;;4.20;97.30;;;;;;5007058;28;20527;-86
2022/11/23 02:26:34;;;;;;;2.00;1.90;;;4.20;97.30;;;;;;5007157;28;20419;-86
2022/11/23 02:29:03;;;;;;;3.37;2.60;;;4.30;97.30;;;;;;5023095;28;20407;-86
2022/11/23 02:31:28;;;;;;;3.33;3.13;;;4.30;97.30;;;;;;5013995;28;20446;-86
2022/11/23 02:33:54;;;;;;;3.63;3.43;;;4.30;97.30;;;;;;5016607;28;20475;-86
2022/11/23 02:36:41;;;;;;;9.50;2.20;;;4.30;97.30;;;;;;5034018;28;20176;-85
2022/11/23 02:39:24;;;;;;;1.83;1.73;;;4.40;97.30;;;;;;5005447;28;20188;-86
2022/11/23 02:41:51;;;;;;;3.20;3.00;;;4.40;97.30;;;;;;5016913;28;20458;-86
2022/11/23 02:44:36;;;;;;;1.57;1.50;;;4.40;97.30;;;;;;5034221;28;20443;-86
2022/11/23 02:47:03;;;;;;;4.13;3.73;;;4.40;97.30;;;;;;5022812;28;20521;-86
2022/11/23 02:49:29;;;;;;;3.03;2.57;;;4.40;97.30;;;;;;5003648;28;20431;-86
2022/11/23 02:51:54;;;;;;;2.00;1.87;;;4.40;97.30;;;;;;5020688;28;20448;-87
2022/11/23 02:54:20;;;;;;;3.80;2.40;;;4.50;97.30;;;;;;5017291;28;20184;-86
2022/11/23 02:56:45;;;;;;;3.33;3.13;;;4.50;97.30;;;;;;5016266;28;20231;-86
2022/11/23 02:59:11;;;;;;;2.17;2.00;;;4.50;97.30;;;;;;5021912;28;20204;-86
2022/11/23 03:01:39;;;;;;;3.07;2.30;;;4.50;97.30;;;;;;5016106;28;20204;-86
2022/11/23 03:04:06;;;;;;;3.83;3.00;;;4.50;97.30;;;;;;5034575;28;20323;-86
2022/11/23 03:06:31;;;;;;;5.70;4.33;;;4.50;97.30;;;;;;5003158;28;20423;-86
2022/11/23 03:08:57;;;;;;;1.60;1.50;;;4.50;97.30;;;;;;5004111;28;20531;-86
2022/11/23 03:11:23;;;;;;;5.10;2.37;;;4.50;97.30;;;;;;5016150;28;20177;-86
2022/11/23 03:13:48;;;;;;;2.17;2.00;;;4.50;97.30;;;;;;5016128;28;20630;-86
2022/11/23 03:16:15;;;;;;;1.47;1.47;;;4.50;97.30;;;;;;5022090;28;20655;-86
2022/11/23 03:18:41;;;;;;;1.43;1.33;;;4.50;97.30;;;;;;5033612;28;20339;-86
2022/11/23 03:21:07;;;;;;;3.10;1.80;;;4.50;97.30;;;;;;5015399;28;20466;-86
2022/11/23 03:23:34;;;;;;;2.33;2.13;;;4.50;97.30;;;;;;5033852;28;20435;-86
2022/11/23 03:26:00;;;;;;;2.97;1.97;;;4.50;97.30;;;;;;5002836;28;20415;-86
2022/11/23 03:28:25;;;;;;;3.27;3.10;;;4.50;97.30;;;;;;5016249;28;20426;-86
2022/11/23 03:30:51;;;;;;;2.13;1.97;;;4.50;97.30;;;;;;5008762;28;20660;-86
2022/11/23 03:33:17;;;;;;;6.40;2.80;;;4.50;97.30;;;;;;5009066;28;20228;-86
2022/11/23 03:35:43;;;;;;;2.53;2.30;;;4.50;97.30;;;;;;5032742;28;20188;-86
2022/11/23 03:38:09;;;;;;;1.37;1.27;;;4.50;97.30;;;;;;5015101;28;21075;-87
2022/11/23 03:40:34;;;;;;;1.77;1.67;;;4.50;97.30;;;;;;5014821;28;20172;-85
2022/11/23 03:43:00;;;;;;;4.23;3.47;;;4.50;97.30;;;;;;5032100;28;20282;-85
2022/11/23 03:45:25;;;;;;;3.33;3.13;;;4.60;97.30;;;;;;5015055;28;20179;-86
2022/11/23 03:47:51;;;;;;;2.87;1.87;;;4.60;97.30;;;;;;5015415;28;20227;-86
2022/11/23 03:50:17;;;;;;;4.27;1.73;;;4.60;97.30;;;;;;5013953;28;20168;-86
2022/11/23 03:52:42;;;;;;;3.60;2.73;;;4.60;97.30;;;;;;5015258;28;20200;-85
2022/11/23 03:55:08;;;;;;;4.30;2.70;;;4.60;97.30;;;;;;5031538;28;20254;-86
2022/11/23 03:57:34;;;;;;;3.03;2.40;;;4.60;97.30;;;;;;5014391;28;20212;-86
2022/11/23 03:59:59;;;;;;;1.90;1.73;;;4.70;97.30;;;;;;5014343;28;20438;-86
2022/11/23 04:02:25;;;;;;;4.97;3.03;;;4.70;97.30;;;;;;5001827;28;20236;-86
2022/11/23 04:04:51;;;;;;;3.23;1.53;;;4.70;97.30;;;;;;5001311;28;20659;-86
2022/11/23 04:07:16;;;;;;;1.73;1.33;;;4.70;97.30;;;;;;5014961;28;20184;-86
2022/11/23 04:09:42;;;;;;;3.33;3.13;;;4.70;97.30;;;;;;5024575;28;20231;-86
2022/11/23 04:12:08;;;;;;;5.53;4.03;;;4.60;97.30;;;;;;5019166;28;20249;-86
2022/11/23 04:14:34;;;;;;;5.33;3.83;;;4.60;97.30;;;;;;5015543;28;20215;-86
2022/11/23 04:17:01;;;;;;;2.57;2.27;;;4.60;97.30;;;;;;5002914;28;20463;-86
2022/11/23 04:19:27;;;;;;;2.73;2.57;;;4.60;97.30;;;;;;5014583;28;20185;-86
2022/11/23 04:21:53;;;;;;;2.13;1.70;;;4.60;97.30;;;;;;5015754;28;20462;-86
2022/11/23 04:24:18;;;;;;;5.83;1.80;;;4.50;97.30;;;;;;5033149;28;20848;-86
2022/11/23 04:26:49;;;;;;;3.13;3.00;;;4.50;97.30;;;;;;5006537;28;20174;-85
2022/11/23 04:29:14;;;;;;;1.27;1.17;;;4.50;97.30;;;;;;5008780;28;20181;-86
2022/11/23 04:31:40;;;;;;;2.57;2.37;;;4.50;97.30;;;;;;5026589;28;20436;-86
2022/11/23 04:34:05;;;;;;;1.90;1.63;;;4.40;97.30;;;;;;5014699;28;20248;-85
2022/11/23 04:36:31;;;;;;;2.17;2.00;;;4.40;97.30;;;;;;5001069;28;20652;-86
2022/11/23 04:38:57;;;;;;;2.30;1.77;;;4.40;97.30;;;;;;5015386;28;20267;-86
2022/11/23 04:41:23;;;;;;;2.87;2.20;;;4.30;97.30;;;;;;5016049;28;20526;-86
2022/11/23 04:43:49;;;;;;;2.70;2.50;;;4.30;97.30;;;;;;5015569;28;20200;-86
2022/11/23 04:46:15;;;;;;;5.40;2.77;;;4.20;97.30;;;;;;5010862;28;20424;-86
2022/11/23 04:48:40;;;;;;;3.27;3.07;;;4.10;97.30;;;;;;5008266;28;20415;-86
2022/11/23 04:51:06;;;;;;;3.63;2.50;;;4.10;97.30;;;;;;5002752;28;20414;-85
2022/11/23 04:53:32;;;;;;;3.63;3.00;;;4.10;97.30;;;;;;5009073;28;20208;-86
2022/11/23 04:55:57;;;;;;;2.97;2.77;;;4.00;97.30;;;;;;5007880;28;20191;-86
2022/11/23 04:58:23;;;;;;;2.50;2.17;;;4.00;97.30;;;;;;5026942;28;20189;-86
2022/11/23 05:00:49;;;;;;;1.93;1.83;;;4.00;97.30;;;;;;5026415;28;20200;-86
2022/11/23 05:03:14;;;;;;;2.93;2.80;;;4.00;97.30;;;;;;5027632;28;20290;-86
2022/11/23 05:05:41;;;;;;;1.67;1.57;;;4.00;97.30;;;;;;4996225;28;20189;-86
2022/11/23 05:08:08;;;;;;;3.77;3.57;;;4.00;97.30;;;;;;5014961;28;20184;-86
2022/11/23 05:10:33;;;;;;;3.37;3.20;;;4.00;97.30;;;;;;5007887;28;20846;-86
2022/11/23 05:12:59;;;;;;;6.13;3.30;;;3.90;97.30;;;;;;5024534;28;20542;-86
2022/11/23 05:15:25;;;;;;;3.73;3.53;;;3.90;97.30;;;;;;5021199;28;20230;-86
2022/11/23 05:17:51;;;;;;;6.30;2.20;;;3.80;97.30;;;;;;5012465;28;20415;-86
2022/11/23 05:20:17;;;;;;;6.70;3.97;;;3.70;97.30;;;;;;5010969;28;20669;-86
2022/11/23 05:22:43;;;;;;;3.20;2.20;;;3.60;97.30;;;;;;4999888;28;20485;-86
2022/11/23 05:25:09;;;;;;;8.53;4.30;;;3.60;97.30;;;;;;5018834;28;20423;-86
2022/11/23 05:27:34;;;;;;;4.33;3.00;;;3.50;97.30;;;;;;5013402;28;20805;-86
2022/11/23 05:30:00;;;;;;;3.70;3.50;;;3.50;97.30;;;;;;5016528;28;20208;-86
2022/11/23 05:32:26;;;;;;;2.70;2.50;;;3.40;97.30;;;;;;5013737;28;20647;-86
2022/11/23 05:34:51;;;;;;;2.33;2.13;;;3.30;97.30;;;;;;5001158;28;20200;-86
2022/11/23 05:37:17;;;;;;;3.63;2.57;;;3.30;97.30;;;;;;5001678;28;20181;-86
2022/11/23 05:39:42;;;;;;;4.73;2.93;;;3.30;97.30;;;;;;5006797;28;20195;-86
2022/11/23 05:42:08;;;;;;;3.20;2.67;;;3.30;97.30;;;;;;4997871;28;20192;-86
2022/11/23 05:44:34;;;;;;;1.83;1.73;;;3.20;97.30;;;;;;5002757;28;20549;-86
2022/11/23 05:46:59;;;;;;;2.10;1.90;;;3.20;97.30;;;;;;5007770;28;20177;-86
2022/11/23 05:49:25;;;;;;;1.93;1.83;;;3.10;97.30;;;;;;5008025;28;20271;-86
2022/11/23 05:51:51;;;;;;;2.17;2.00;;;3.10;97.30;;;;;;5001571;28;20191;-85
2022/11/23 05:54:16;;;;;;;4.10;3.20;;;3.10;97.30;;;;;;4996199;28;20237;-86
2022/11/23 05:56:42;;;;;;;17.60;3.47;;;3.10;97.30;;;;;;5001309;28;20176;-86
2022/11/23 05:59:07;;;;;;;2.13;1.83;;;3.10;97.30;;;;;;5013056;28;20183;-86
2022/11/23 06:01:33;;;;;;;2.70;1.60;;;3.00;97.30;;;;;;5001727;28;20216;-86
2022/11/23 06:03:59;;;;;;;3.67;3.10;;;3.00;97.30;;;;;;5012468;28;20232;-86
2022/11/23 06:06:24;;;;;;;3.53;3.33;;;3.00;97.30;;;;;;5011080;28;20230;-86
2022/11/23 06:08:50;;;;;;;7.30;3.03;;;3.00;97.30;;;;;;5007872;28;20180;-86
2022/11/23 06:11:15;;;;;;;12.23;5.20;;;3.00;97.30;;;;;;5006152;28;20236;-86
2022/11/23 06:13:41;;;;;;;3.60;3.13;;;3.00;97.30;;;;;;5009560;28;20619;-85
2022/11/23 06:16:07;;;;;;;6.60;4.03;;;3.10;97.30;;;;;;5015994;28;20192;-83
2022/11/23 06:18:32;;;;;;;8.53;3.13;;;3.10;97.30;;;;;;5014174;28;20184;-86
2022/11/23 06:20:59;;;;;;;2.37;2.20;;;3.10;97.30;;;;;;5007643;28;20704;-86
2022/11/23 06:23:25;;;;;;;1.57;1.47;;;3.10;97.30;;;;;;5019738;28;20258;-86
2022/11/23 06:25:51;;;;;;;7.83;3.10;;;3.10;97.30;;;;;;5002491;28;20412;-86
2022/11/23 06:28:16;;;;;;;2.93;2.73;;;3.10;97.30;;;;;;5014294;28;20176;-83
2022/11/23 06:30:42;;;;;;;1.93;1.83;;;3.00;97.30;;;;;;5003205;28;20694;-86
2022/11/23 06:33:07;;;;;;;2.43;2.23;;;3.00;97.30;;;;;;5003594;28;20212;-86
2022/11/23 06:35:33;;;;;;;1.70;1.60;;;2.90;97.30;;;;;;5003345;28;20272;-86
2022/11/23 06:37:58;;;;;;;4.50;2.43;;;2.90;97.30;;;;;;5010357;28;20271;-86
2022/11/23 06:40:24;;;;;;;8.00;2.77;;;2.80;97.30;;;;;;5002198;28;20196;-87
2022/11/23 06:42:49;;;;;;;1.90;1.80;;;2.80;97.30;;;;;;5013768;28;20222;-86
2022/11/23 06:45:15;;;;;;;3.30;2.33;;;2.80;97.30;;;;;;5018408;28;20187;-86
2022/11/23 06:47:41;;;;;;;9.00;4.50;;;2.70;97.30;;;;;;5028049;28;20778;-85
2022/11/23 06:50:08;;;;;;;2.80;2.23;;;2.70;97.30;;;;;;5003845;28;20184;-86
2022/11/23 06:52:33;;;;;;;1.83;1.73;;;2.60;97.30;;;;;;5008732;28;20736;-85
2022/11/23 06:54:59;;;;;;;1.60;1.50;;;2.60;97.30;;;;;;5013658;28;20505;-86
2022/11/23 06:57:24;;;;;;;3.83;3.63;;;2.60;97.30;;;;;;5013514;28;20266;-85
2022/11/23 06:59:50;;;;;;;2.50;2.33;;;2.50;97.30;;;;;;5012315;28;20216;-85
2022/11/23 07:02:15;;;;;;;1.47;1.37;;;2.50;97.30;;;;;;5017713;28;20217;-85
2022/11/23 07:04:41;;;;;;;2.70;2.50;;;2.60;97.30;;;;;;5001802;28;20326;-85
2022/11/23 07:07:08;;;;;;;4.10;3.50;;;2.60;97.30;;;;;;5006191;28;20629;-86
2022/11/23 07:09:33;;;;;;;1.30;1.20;;;2.70;97.30;;;;;;5030334;28;20424;-85
2022/11/23 07:11:59;;;;;;;2.60;2.40;;;2.70;97.30;;;;;;5025623;28;20886;-85
2022/11/23 07:14:25;;;;;;;2.73;2.53;;;2.80;97.30;;;;;;5011756;28;20501;-85
2022/11/23 07:16:50;;;;;;;3.53;2.47;;;2.80;97.30;;;;;;5008104;28;20189;-84
2022/11/23 07:19:16;;;;;;;3.47;2.90;;;2.90;97.30;;;;;;5009578;28;20184;-86
2022/11/23 07:21:41;;;;;;;3.10;2.80;;;2.90;97.30;;;;;;5006552;28;20283;-86
2022/11/23 07:24:07;;;;;;;4.63;3.57;;;3.00;97.30;;;;;;5007242;28;20223;-86
2022/11/23 07:26:33;;;;;;;5.17;4.53;;;3.00;97.30;;;;;;5003139;28;20286;-86
2022/11/23 07:28:58;;;;;;;1.90;1.80;;;3.00;97.30;;;;;;5010628;28;20192;-85
2022/11/23 07:31:24;;;;;;;7.57;3.03;;;3.00;97.30;;;;;;5011230;28;20176;-86
2022/11/23 07:33:49;;;;;;;2.60;2.40;;;3.00;97.30;;;;;;5032506;28;20215;-86
2022/11/23 07:36:15;;;;;;;2.90;2.70;;;2.90;97.30;;;;;;5008103;28;20172;-87
2022/11/23 07:38:41;;;;;;;2.27;2.07;;;2.90;97.30;;;;;;5004869;28;20176;-85
2022/11/23 07:41:07;;;;;;;8.43;2.83;;;2.80;97.30;;;;;;5006781;28;20192;-88
2022/11/23 07:43:32;;;;;;;2.63;2.23;;;2.80;97.30;;;;;;5008127;28;20212;-86
2022/11/23 07:45:58;;;;;;;3.43;2.77;;;2.80;97.30;;;;;;5004557;28;20411;-86
2022/11/23 07:48:24;;;;;;;2.10;1.87;;;2.80;97.30;;;;;;5006747;28;20191;-86
2022/11/23 07:50:53;;;;;;;4.53;2.50;;;2.90;97.30;;;;;;5001715;28;20177;-85
2022/11/23 07:53:19;;;;;;;7.60;5.00;;;2.90;97.30;;;;;;5015434;28;20204;-86
2022/11/23 07:55:45;;;;;;;1.67;1.60;;;3.00;97.30;;;;;;5004072;28;20427;-86
2022/11/23 07:58:11;;;;;;;4.40;3.37;;;3.00;97.30;;;;;;5002171;28;20930;-86
2022/11/23 08:00:37;;;;;;;2.00;1.90;;;3.00;97.30;;;;;;5002189;28;20769;-86
2022/11/23 08:03:03;;;;;;;2.43;1.80;;;3.00;97.30;;;;;;4997294;28;20845;-86
2022/11/23 08:05:31;;;;;;;6.93;2.33;;;3.00;97.30;;;;;;5002486;28;20177;-86
2022/11/23 08:08:01;;;;;;;2.53;2.33;;;3.00;97.30;;;;;;5005109;28;21144;-85
2022/11/23 08:10:28;;;;;;;1.77;1.67;;;3.00;97.30;;;;;;5010107;28;20420;-86
2022/11/23 08:15:28;;;;;;;5.37;3.07;;;3.10;97.30;;;;;;5049454;28;20958;-80
2022/11/23 08:17:59;;;;;;;3.43;2.50;;;3.10;97.30;;;;;;5036912;28;20415;-77
2022/11/23 08:20:25;;;;;;;2.07;1.93;;;3.20;97.30;;;;;;5037837;28;20421;-80
2022/11/23 08:22:51;;;;;;;4.40;2.47;;;3.30;97.30;;;;;;5036654;28;20464;-81
2022/11/23 08:25:17;;;;;;;3.83;3.20;;;3.40;97.30;;;;;;5022760;28;20428;-83
2022/11/23 08:27:42;;;;;;;3.83;2.60;;;3.50;97.30;;;;;;5024708;28;20490;-81
2022/11/23 08:30:09;;;;;;;2.80;2.60;;;3.60;97.30;;;;;;5022345;28;20191;-82
2022/11/23 08:32:34;;;;;;;3.00;2.80;;;3.70;97.30;;;;;;5017739;28;20541;-80
2022/11/23 08:35:00;;;;;;;2.47;2.30;;;3.90;97.30;;;;;;5009262;28;20493;-81
2022/11/23 08:37:25;;;;;;;3.63;3.43;;;4.00;97.30;;;;;;5016073;28;20212;-82
2022/11/23 08:39:51;;;;;;;4.33;3.97;;;4.10;97.30;;;;;;5035085;28;20180;-84
2022/11/23 08:42:16;;;;;;;11.17;3.97;;;4.10;97.30;;;;;;5017361;28;20228;-85
2022/11/23 08:44:42;;;;;;;1.77;1.67;;;4.20;97.30;;;;;;5016662;28;20264;-84
2022/11/23 08:47:07;;;;;;;4.07;3.17;;;4.20;97.30;;;;;;5022534;28;20673;-84
2022/11/23 08:49:33;;;;;;;1.90;1.80;;;4.20;97.30;;;;;;5027038;28;20177;-84
2022/11/23 08:51:59;;;;;;;5.73;1.90;;;4.30;97.30;;;;;;5030109;28;20275;-84
2022/11/23 08:54:24;;;;;;;6.27;4.73;;;4.30;97.30;;;;;;5039301;28;20287;-84
2022/11/23 08:56:50;;;;;;;7.10;3.00;;;4.50;97.30;;;;;;5017791;28;20184;-83
2022/11/23 08:59:16;;;;;;;5.37;2.43;;;4.60;97.30;;;;;;5017533;28;20188;-85
2022/11/23 09:01:42;;;;;;;10.93;2.60;;;4.70;97.30;;;;;;5035051;28;20283;-84
2022/11/23 09:04:08;;;;;;;3.27;3.07;;;4.80;97.30;;;;;;5036472;28;20449;-85
2022/11/23 09:06:34;;;;;;;2.50;2.27;;;4.90;97.30;;;;;;5044398;28;20423;-84
2022/11/23 09:09:00;;;;;;;2.40;2.20;;;5.10;97.30;;;;;;5024831;28;20180;-85
2022/11/23 09:11:26;;;;;;;1.97;1.70;;;5.20;97.30;;;;;;5022272;28;20186;-86
2022/11/23 09:13:51;;;;;;;28.57;2.70;;;5.30;97.30;;;;;;5019574;28;20458;-85
2022/11/23 09:16:17;;;;;;;8.17;3.20;;;5.50;97.30;;;;;;5026389;28;20184;-82
2022/11/23 09:18:43;;;;;;;2.30;2.10;;;5.60;97.30;;;;;;5035207;28;20177;-85
2022/11/23 09:21:09;;;;;;;1.83;1.73;;;5.80;97.30;;;;;;5037525;28;20180;-83
2022/11/23 09:23:34;;;;;;;3.20;1.60;;;5.90;97.30;;;;;;5037540;28;20814;-85
2022/11/23 09:26:01;;;;;;;2.50;2.30;;;6.00;97.30;;;;;;5040616;28;20427;-83
2022/11/23 09:28:27;;;;;;;9.23;2.43;;;6.10;97.30;;;;;;5034689;28;20560;-84
2022/11/23 09:30:54;;;;;;;11.90;3.77;;;6.20;97.30;;;;;;5022822;28;20415;-83
2022/11/23 09:33:20;;;;;;;2.30;2.10;;;6.30;97.30;;;;;;5017188;28;20200;-85
2022/11/23 09:35:46;;;;;;;7.77;3.47;;;6.30;97.30;;;;;;5022551;28;20424;-83
2022/11/23 09:38:11;;;;;;;3.97;2.80;;;6.30;97.30;;;;;;5019499;28;20514;-84
2022/11/23 09:40:39;;;;;;;2.60;2.40;;;6.40;97.30;;;;;;5014758;28;20192;-85
2022/11/23 09:43:19;;;;;;;3.83;2.30;;;6.50;97.30;;;;;;5035266;28;20200;-84
2022/11/23 09:46:01;;;;;;;3.90;2.80;;;6.60;97.30;;;;;;5031951;28;20427;-84
2022/11/23 09:48:45;;;;;;;3.13;2.70;;;6.80;97.30;;;;;;5024109;28;20423;-86
2022/11/23 09:51:20;;;;;;;2.90;2.60;;;6.90;97.30;;;;;;5040532;28;20477;-83
2022/11/23 09:53:55;;;;;;;2.73;2.17;;;7.00;97.30;;;;;;5018379;28;20529;-82
2022/11/23 09:56:35;;;;;;;2.20;1.20;;;7.10;97.30;;;;;;5025593;28;20790;-85
2022/11/23 09:59:09;;;;;;;5.53;2.70;;;7.20;97.30;;;;;;5012306;28;20451;-84
2022/11/23 10:01:35;;;;;;;4.70;3.93;;;7.20;97.30;;;;;;5013363;28;20481;-84
2022/11/23 10:04:03;;;;;;;1.77;1.60;;;7.30;97.30;;;;;;5020359;28;20462;-84
2022/11/23 10:06:33;;;;;;;4.50;4.20;;;7.50;97.30;;;;;;5037037;28;20263;-83
2022/11/23 10:09:23;;;;;;;6.33;3.33;;;7.60;97.30;;;;;;5019284;28;20423;-84
2022/11/23 10:12:11;;;;;;;3.10;2.10;;;7.70;97.30;;;;;;5033242;28;20423;-85
2022/11/23 10:14:39;;;;;;;4.60;2.87;;;7.80;97.30;;;;;;5014483;28;20488;-81
2022/11/23 10:17:13;;;;;;;5.50;4.10;;;7.90;97.30;;;;;;5034676;28;20426;-80
2022/11/23 10:20:01;;;;;;;2.80;2.60;;;8.00;97.30;;;;;;5017146;28;20485;-80
2022/11/23 10:22:48;;;;;;;1.20;1.10;;;8.10;97.30;;;;;;5019028;28;21025;-82
2022/11/23 10:25:19;;;;;;;4.60;3.07;;;8.30;97.30;;;;;;5024675;28;20438;-82
2022/11/23 10:27:50;;;;;;;3.90;2.83;;;8.50;97.30;;;;;;5016347;28;20821;-81
2022/11/23 10:30:17;;;;;;;5.03;2.30;;;8.70;97.30;;;;;;5018448;28;20449;-81
2022/11/23 10:33:16;;;;;;;2.23;2.07;;;8.70;97.30;;;;;;5016609;28;20454;-82
2022/11/23 10:35:41;;;;;;;4.50;3.67;;;8.80;97.30;;;;;;5018062;28;20825;-82
2022/11/23 10:38:12;;;;;;;2.33;2.13;;;8.90;97.30;;;;;;5012637;28;20426;-81
2022/11/23 10:40:44;;;;;;;8.83;4.57;;;9.00;97.30;;;;;;5006312;28;20173;-81
2022/11/23 10:43:24;;;;;;;3.77;2.60;;;9.10;97.30;;;;;;5006746;28;20478;-82
2022/11/23 10:45:49;;;;;;;2.30;2.10;;;9.20;97.30;;;;;;5006237;28;20418;-81
2022/11/23 10:48:43;;;;;;;2.40;2.20;;;9.30;97.30;;;;;;5005902;28;20415;-81
2022/11/23 10:51:26;;;;;;;2.63;2.43;;;9.50;97.30;;;;;;5017371;28;20268;-82
2022/11/23 10:54:05;;;;;;;1.87;1.77;;;9.50;97.30;;;;;;5015393;28;20442;-84
2022/11/23 10:56:32;;;;;;;1.30;1.20;;;9.60;97.30;;;;;;5001527;28;20431;-82
2022/11/23 10:58:57;;;;;;;3.50;2.70;;;9.60;97.30;;;;;;4998835;28;20420;-82
2022/11/23 11:01:28;;;;;;;1.97;1.80;;;9.70;97.30;;;;;;5004681;28;20509;-83
2022/11/23 11:03:58;;;;;;;8.33;2.40;;;9.80;97.30;;;;;;5000273;28;20248;-82
2022/11/23 11:06:30;;;;;;;3.17;2.07;;;9.90;97.30;;;;;;5010171;28;20465;-82
2022/11/23 11:08:58;;;;;;;1.57;1.23;;;10.00;97.30;;;;;;5007513;28;20415;-83
2022/11/23 11:11:27;;;;;;;1.53;1.50;;;10.00;97.30;;;;;;5013974;28;20416;-81
2022/11/23 11:14:05;;;;;;;1.77;1.63;;;10.10;97.30;;;;;;5019194;28;20463;-84
2022/11/23 11:16:34;;;;;;;1.50;1.40;;;10.30;97.30;;;;;;5034844;28;20436;-85
2022/11/23 11:19:21;;;;;;;1.90;1.80;;;10.40;97.30;;;;;;5035771;28;20407;-85
2022/11/23 11:21:47;;;;;;;17.10;4.43;;;10.40;97.30;;;;;;5029318;28;20979;-85
2022/11/23 11:24:34;;;;;;;4.23;2.20;;;10.30;97.30;;;;;;5017894;28;20435;-84
2022/11/23 11:27:11;;;;;;;1.23;1.13;;;10.20;97.30;;;;;;5018242;28;20180;-84
2022/11/23 11:29:38;;;;;;;2.47;2.00;;;10.10;97.30;;;;;;5008113;28;20565;-85
2022/11/23 11:32:25;;;;;;;3.27;1.30;;;10.20;97.30;;;;;;5015619;28;20446;-85
2022/11/23 11:35:02;;;;;;;3.33;2.10;;;10.40;97.30;;;;;;5017599;28;20439;-84
2022/11/23 11:37:43;;;;;;;1.50;1.40;;;10.60;97.30;;;;;;5017628;28;20450;-84
2022/11/23 11:40:50;;;;;;;6.03;2.83;;;10.70;97.30;;;;;;5017283;28;20969;-85
2022/11/23 11:43:34;;;;;;;2.97;1.43;;;10.80;97.30;;;;;;5018281;28;20470;-85
2022/11/23 11:46:04;;;;;;;2.47;1.77;;;11.00;97.30;;;;;;5036723;28;20402;-84
2022/11/23 11:48:52;;;;;;;2.40;1.60;;;11.20;97.30;;;;;;5024071;28;20899;-85
2022/11/23 11:51:43;;;;;;;1.23;1.13;;;11.30;97.30;;;;;;5023550;28;20438;-84
2022/11/23 11:54:31;;;;;;;1.97;1.90;;;11.20;97.20;;;;;;5017766;28;20508;-85
2022/11/23 11:57:04;;;;;;;2.53;1.60;;;11.10;97.30;;;;;;4998323;28;20850;-85
2022/11/23 11:59:42;;;;;;;1.47;1.37;;;10.80;97.30;;;;;;5006173;28;20417;-82
2022/11/23 12:02:38;;;;;;;1.13;1.03;;;10.50;97.30;;;;;;5009403;28;21292;-83
2022/11/23 12:05:20;;;;;;;1.57;1.47;;;10.40;97.30;;;;;;5013571;28;20447;-82
2022/11/23 12:08:08;;;;;;;8.87;1.57;;;10.20;97.30;;;;;;5007687;28;20474;-85
2022/11/23 12:10:36;;;;;;;5.03;1.57;;;10.00;97.30;;;;;;5008571;28;20964;-85
2022/11/23 12:13:02;;;;;;;1.40;1.30;;;10.00;97.30;;;;;;5006432;28;20851;-83
2022/11/23 12:15:36;;;;;;;2.70;2.50;;;9.90;97.30;;;;;;5000458;28;20489;-84
2022/11/23 12:18:37;;;;;;;15.20;3.63;;;9.90;97.30;;;;;;4997939;28;20181;-83
2022/11/23 12:21:03;;;;;;;1.67;1.57;;;9.90;97.30;;;;;;5010043;28;20457;-85
2022/11/23 12:23:48;;;;;;;1.60;1.50;;;9.90;97.30;;;;;;4997734;28;20977;-85
2022/11/23 12:26:18;;;;;;;1.60;1.53;;;9.90;97.30;;;;;;4995004;28;20435;-85
2022/11/23 12:29:16;;;;;;;1.57;1.47;;;10.00;97.30;;;;;;4995283;28;20537;-84
2022/11/23 12:31:54;;;;;;;3.77;2.80;;;10.10;97.30;;;;;;4983365;28;20923;-85
2022/11/23 12:34:55;;;;;;;4.10;2.90;;;10.30;97.30;;;;;;4995041;28;20444;-86
2022/11/23 12:37:46;;;;;;;2.30;1.93;;;10.60;97.30;;;;;;4995261;28;20510;-85
2022/11/23 12:40:23;;;;;;;2.07;1.77;;;10.80;97.30;;;;;;4995088;28;20427;-85
2022/11/23 12:42:54;;;;;;;1.20;1.10;;;11.00;97.30;;;;;;4994992;28;20464;-85
2022/11/23 12:45:30;;;;;;;2.67;2.47;;;11.10;97.30;;;;;;4994760;28;20421;-85
2022/11/23 12:48:03;;;;;;;34.57;2.70;;;11.10;97.30;;;;;;4995192;28;20420;-88
2022/11/23 12:50:46;;;;;;;2.13;1.40;;;11.00;97.30;;;;;;4994829;28;20424;-86
2022/11/23 12:53:35;;;;;;;1.07;0.97;;;10.80;97.30;;;;;;4995098;28;20450;-85
2022/11/23 12:56:12;;;;;;;1.80;1.43;;;10.70;97.30;;;;;;4994438;28;20946;-85
2022/11/23 12:58:39;;;;;;;2.23;2.03;;;10.50;97.30;;;;;;4994880;28;20426;-85
2022/11/23 13:01:09;;;;;;;1.00;0.90;;;10.50;97.30;;;;;;4999054;28;20446;-85
2022/11/23 13:03:48;;;;;;;1.47;1.37;;;10.40;97.30;;;;;;5013783;28;20853;-85
2022/11/23 13:06:36;;;;;;;1.10;1.00;;;10.50;97.30;;;;;;5014266;28;20426;-85
2022/11/23 13:09:38;;;;;;;2.30;2.00;;;10.70;97.30;;;;;;5013960;28;20423;-86